Time;durP1;ratioP1;P1;durP2;ratioP2;P2;SDS_P1;SDS_P2;PMS_P1;PMS_P2;Temp;Humidity;BMP_temperature;BMP_pressure;BME280_temperature;BME280_humidity;BME280_pressure;Samples;Min_cycle;Max_cycle;Signal;HPM_P1;HPM_P2
2023/09/16 00:01:38;;;;;;;13.10;7.20;;;;;;;16.86;100.00;101314.47;5043116;28;20473;-63
2023/09/16 00:04:26;;;;;;;9.38;6.07;;;;;;;16.84;100.00;101312.06;5019151;28;20056;-63
2023/09/16 00:07:15;;;;;;;10.30;5.97;;;;;;;16.87;100.00;101305.13;5052938;28;20064;-64
2023/09/16 00:10:04;;;;;;;10.50;6.63;;;;;;;16.86;100.00;101300.72;5037599;28;20136;-63
2023/09/16 00:12:52;;;;;;;9.55;6.28;;;;;;;16.84;100.00;101306.53;5040293;28;20056;-64
2023/09/16 00:15:40;;;;;;;9.82;5.85;;;;;;;16.83;100.00;101305.69;5009036;28;20052;-62
2023/09/16 00:18:28;;;;;;;10.93;7.00;;;;;;;16.85;100.00;101297.16;5039161;28;20045;-64
2023/09/16 00:21:17;;;;;;;10.02;6.68;;;;;;;16.85;100.00;101299.09;5033278;28;20505;-63
2023/09/16 00:24:06;;;;;;;12.13;7.35;;;;;;;16.82;100.00;101300.50;5032647;28;20571;-63
2023/09/16 00:26:54;;;;;;;12.57;6.72;;;;;;;16.81;100.00;101301.63;5022129;28;20096;-63
2023/09/16 00:29:41;;;;;;;13.77;7.30;;;;;;;16.81;100.00;101301.63;5018414;28;20127;-64
2023/09/16 00:32:31;;;;;;;12.57;6.25;;;;;;;16.83;100.00;101297.44;5043584;28;20056;-63
2023/09/16 00:35:19;;;;;;;11.02;6.53;;;;;;;16.85;100.00;101302.66;5051901;28;20048;-62
2023/09/16 00:38:09;;;;;;;10.05;6.10;;;;;;;16.86;100.00;101298.81;5054584;28;20131;-62
2023/09/16 00:40:57;;;;;;;11.43;6.75;;;;;;;16.89;100.00;101305.66;5051995;28;20119;-64
2023/09/16 00:43:45;;;;;;;12.32;6.72;;;;;;;16.88;100.00;101304.81;5036142;28;20189;-64
2023/09/16 00:46:33;;;;;;;10.93;6.22;;;;;;;16.87;100.00;101305.13;5050891;28;20049;-64
2023/09/16 00:49:21;;;;;;;10.27;6.53;;;;;;;16.87;100.00;101305.94;5052675;28;20040;-63
2023/09/16 00:52:09;;;;;;;12.52;7.35;;;;;;;16.87;100.00;101300.44;5040434;28;20041;-63
2023/09/16 00:54:57;;;;;;;13.52;7.28;;;;;;;16.83;100.00;101299.38;5039089;28;20049;-63
2023/09/16 00:57:48;;;;;;;12.05;7.07;;;;;;;16.76;100.00;101293.41;5023421;28;20187;-64
2023/09/16 01:00:36;;;;;;;13.00;7.18;;;;;;;16.75;100.00;101302.78;5042002;28;20052;-63
2023/09/16 01:03:25;;;;;;;14.05;7.35;;;;;;;16.74;100.00;101298.38;5051602;28;20528;-63
2023/09/16 01:06:16;;;;;;;14.18;7.65;;;;;;;16.71;100.00;101296.25;5051441;28;20045;-63
2023/09/16 01:09:04;;;;;;;12.02;7.53;;;;;;;16.67;100.00;101292.44;5051422;28;20041;-64
2023/09/16 01:11:52;;;;;;;13.98;7.50;;;;;;;16.61;100.00;101284.25;5016973;28;20128;-63
2023/09/16 01:14:40;;;;;;;13.80;7.78;;;;;;;16.58;100.00;101287.63;5018089;28;20042;-63
2023/09/16 01:18:07;;;;;;;15.55;8.10;;;;;;;16.54;100.00;101278.31;5025404;28;20108;-63
2023/09/16 01:20:58;;;;;;;18.13;8.45;;;;;;;16.51;100.00;101280.84;4953999;28;20389;-62
2023/09/16 01:23:46;;;;;;;13.45;7.90;;;;;;;16.51;100.00;101275.34;5017882;28;20595;-63
2023/09/16 01:26:34;;;;;;;14.32;8.02;;;;;;;16.48;100.00;101275.94;5025804;28;20528;-62
2023/09/16 01:29:22;;;;;;;12.82;7.88;;;;;;;16.47;100.00;101269.59;5050772;28;20192;-63
2023/09/16 01:32:11;;;;;;;14.85;8.27;;;;;;;16.48;100.00;101278.69;5007755;28;20464;-64
2023/09/16 01:35:01;;;;;;;12.18;7.85;;;;;;;16.46;100.00;101279.00;5030601;28;20049;-64
2023/09/16 01:37:50;;;;;;;12.75;7.63;;;;;;;16.45;100.00;101263.63;5045312;28;20123;-64
2023/09/16 01:40:38;;;;;;;12.02;7.65;;;;;;;16.42;100.00;101272.44;5017710;28;20045;-63
2023/09/16 01:43:28;;;;;;;12.48;7.25;;;;;;;16.40;100.00;101271.91;5017317;28;20073;-63
2023/09/16 01:46:16;;;;;;;13.45;8.20;;;;;;;16.42;100.00;101277.94;5031578;28;20042;-63
2023/09/16 01:49:04;;;;;;;12.05;6.90;;;;;;;16.43;100.00;101276.84;5051082;28;20052;-63
2023/09/16 01:51:53;;;;;;;13.82;8.25;;;;;;;16.45;100.00;101277.38;5049740;28;20128;-63
2023/09/16 01:54:41;;;;;;;14.90;8.02;;;;;;;16.42;100.00;101274.38;5034882;28;20194;-63
2023/09/16 01:57:29;;;;;;;16.83;8.07;;;;;;;16.38;100.00;101271.41;5050509;28;20420;-63
2023/09/16 02:00:17;;;;;;;13.23;8.05;;;;;;;16.30;100.00;101264.63;5050873;28;20055;-63
2023/09/16 02:03:05;;;;;;;14.90;8.57;;;;;;;16.24;100.00;101274.06;5037116;28;20399;-63
2023/09/16 02:05:53;;;;;;;17.85;8.77;;;;;;;16.19;100.00;101263.94;5030556;28;20068;-64
2023/09/16 02:08:41;;;;;;;13.30;8.73;;;;;;;16.15;100.00;101271.13;5004798;28;20049;-63
2023/09/16 02:11:30;;;;;;;14.27;7.35;;;;;;;16.14;100.00;101266.78;5018436;28;20092;-64
2023/09/16 02:14:20;;;;;;;11.38;7.40;;;;;;;16.16;100.00;101270.03;5019425;28;20041;-64
2023/09/16 02:17:08;;;;;;;15.02;8.93;;;;;;;16.16;100.00;101270.03;5017954;28;20038;-63
2023/09/16 02:19:56;;;;;;;14.18;7.80;;;;;;;16.16;100.00;101270.03;5008322;28;20056;-62
2023/09/16 02:22:44;;;;;;;14.45;8.38;;;;;;;16.19;100.00;101269.44;5030414;28;20115;-63
2023/09/16 02:25:35;;;;;;;12.75;8.15;;;;;;;16.19;100.00;101268.63;5034754;28;20052;-64
2023/09/16 02:28:23;;;;;;;12.38;7.80;;;;;;;16.17;100.00;101265.34;5037601;28;20052;-63
2023/09/16 02:31:12;;;;;;;14.55;8.52;;;;;;;16.21;100.00;101276.56;5028718;28;20041;-64
2023/09/16 02:34:02;;;;;;;13.63;7.70;;;;;;;16.19;100.00;101269.44;5024182;28;20061;-64
2023/09/16 02:36:50;;;;;;;13.93;8.60;;;;;;;16.16;100.00;101264.56;5020111;28;20048;-63
2023/09/16 02:39:38;;;;;;;16.52;8.52;;;;;;;16.16;100.00;101258.22;5051817;28;20068;-64
2023/09/16 02:42:27;;;;;;;15.63;8.50;;;;;;;16.10;100.00;101257.47;5008543;28;20041;-63
2023/09/16 02:45:15;;;;;;;13.45;8.85;;;;;;;16.03;100.00;101258.94;5051347;28;20048;-63
2023/09/16 02:48:03;;;;;;;14.23;9.05;;;;;;;15.98;100.00;101262.56;5051666;28;20069;-63
2023/09/16 02:50:51;;;;;;;12.55;9.07;;;;;;;15.95;100.00;101257.66;5038213;28;20769;-63
2023/09/16 02:53:39;;;;;;;15.07;8.90;;;;;;;15.93;100.00;101248.91;5039345;28;20083;-63
2023/09/16 02:56:28;;;;;;;14.02;8.57;;;;;;;15.91;100.00;101245.63;5055263;28;20457;-63
2023/09/16 02:59:16;;;;;;;14.35;7.93;;;;;;;15.94;100.00;101245.03;5053775;28;20156;-63
2023/09/16 03:02:04;;;;;;;12.73;7.57;;;;;;;15.96;100.00;101254.59;5039375;28;20047;-63
2023/09/16 03:04:53;;;;;;;10.18;6.90;;;;;;;16.02;100.00;101252.63;5027903;28;20084;-63
2023/09/16 03:07:41;;;;;;;12.50;8.23;;;;;;;16.04;100.00;101255.88;5006738;28;20049;-64
2023/09/16 03:10:31;;;;;;;14.10;8.80;;;;;;;16.03;100.00;101253.44;5020949;28;20042;-64
2023/09/16 03:13:19;;;;;;;15.25;8.02;;;;;;;16.00;100.00;101254.03;5032864;28;20131;-63
2023/09/16 03:16:16;;;;;;;15.60;7.32;;;;;;;15.99;100.00;101258.69;5053561;28;20041;-64
2023/09/16 03:19:08;;;;;;;15.43;10.07;;;;;;;15.99;100.00;101250.44;5038856;28;20048;-63
2023/09/16 03:21:57;;;;;;;14.35;8.55;;;;;;;15.95;100.00;101242.00;5039128;28;20045;-64
2023/09/16 03:24:45;;;;;;;14.82;8.98;;;;;;;15.92;100.00;101239.84;5054121;28;20151;-63
2023/09/16 03:27:33;;;;;;;17.52;9.48;;;;;;;15.91;100.00;101240.13;5025719;28;20067;-63
2023/09/16 03:30:21;;;;;;;15.15;9.23;;;;;;;15.87;100.00;101241.81;5040852;28;20303;-64
2023/09/16 03:33:11;;;;;;;16.00;9.20;;;;;;;15.82;100.00;101241.88;5022579;28;20048;-63
2023/09/16 03:35:59;;;;;;;16.90;9.48;;;;;;;15.82;100.00;101239.13;5039864;28;20493;-63
2023/09/16 03:38:49;;;;;;;17.33;8.63;;;;;;;15.80;100.00;101233.09;5033868;28;20057;-63
2023/09/16 03:41:38;;;;;;;14.80;9.02;;;;;;;15.81;100.00;101229.25;5005574;28;20038;-64
2023/09/16 03:44:27;;;;;;;14.20;8.02;;;;;;;15.83;100.00;101221.53;5028918;28;20037;-63
2023/09/16 03:47:15;;;;;;;16.02;8.75;;;;;;;15.83;100.00;101221.53;5039685;28;20072;-63
2023/09/16 03:50:04;;;;;;;13.55;9.38;;;;;;;15.80;100.00;101213.88;5022819;28;20045;-63
2023/09/16 03:52:52;;;;;;;14.40;8.88;;;;;;;15.76;100.00;101222.72;5038656;28;20049;-63
2023/09/16 03:55:40;;;;;;;15.85;9.27;;;;;;;15.75;100.00;101214.75;5032804;28;20513;-63
2023/09/16 03:58:28;;;;;;;13.93;9.38;;;;;;;15.72;100.00;101221.66;5037955;28;20136;-62
2023/09/16 04:01:17;;;;;;;15.45;9.13;;;;;;;15.72;100.00;101216.16;5038595;28;20065;-63
2023/09/16 04:04:05;;;;;;;14.38;8.70;;;;;;;15.74;100.00;101219.44;5035376;28;20048;-64
2023/09/16 04:06:53;;;;;;;18.67;9.52;;;;;;;15.79;100.00;101220.50;5032175;28;20353;-63
2023/09/16 04:09:41;;;;;;;14.77;8.73;;;;;;;15.79;100.00;101225.97;5052777;28;20060;-64
2023/09/16 04:12:29;;;;;;;12.00;8.65;;;;;;;15.80;100.00;101225.66;5039725;28;20076;-64
2023/09/16 04:15:17;;;;;;;13.77;8.63;;;;;;;15.83;100.00;101227.03;5051078;28;20057;-65
2023/09/16 04:18:06;;;;;;;13.07;7.80;;;;;;;15.86;100.00;101220.94;5045261;28;20413;-62
2023/09/16 04:20:55;;;;;;;12.07;7.55;;;;;;;15.89;100.00;101229.41;5018297;28;20379;-63
2023/09/16 04:23:43;;;;;;;13.98;8.60;;;;;;;15.90;100.00;101241.25;5018833;28;20136;-63
2023/09/16 04:26:32;;;;;;;12.65;8.50;;;;;;;15.93;100.00;101232.41;5025861;28;20049;-64
2023/09/16 04:29:20;;;;;;;13.20;8.35;;;;;;;15.93;100.00;101233.22;5024426;28;20175;-61
2023/09/16 04:32:08;;;;;;;13.68;8.65;;;;;;;15.90;100.00;101233.00;5051690;28;20124;-63
2023/09/16 04:34:58;;;;;;;13.18;7.93;;;;;;;15.85;100.00;101227.53;5037540;28;20120;-62
2023/09/16 04:37:46;;;;;;;15.52;9.75;;;;;;;15.81;100.00;101226.50;5033803;28;20174;-63
2023/09/16 04:40:35;;;;;;;16.42;9.48;;;;;;;15.76;100.00;101222.72;5006037;28;20394;-63
2023/09/16 04:43:25;;;;;;;14.32;8.38;;;;;;;15.73;100.00;101222.50;5017596;28;20072;-64
2023/09/16 04:46:14;;;;;;;15.95;9.80;;;;;;;15.77;100.00;101221.59;5039964;28;20049;-63
2023/09/16 04:49:04;;;;;;;15.88;9.68;;;;;;;15.72;100.00;101216.16;5015370;28;20048;-64
2023/09/16 04:51:52;;;;;;;14.50;9.35;;;;;;;15.68;100.00;101209.59;5031348;28;20517;-63
2023/09/16 04:54:43;;;;;;;12.20;9.00;;;;;;;15.71;100.00;101214.53;5018417;28;20046;-64
2023/09/16 04:57:31;;;;;;;17.30;10.05;;;;;;;15.72;100.00;101213.41;5034482;28;20053;-64
2023/09/16 05:00:20;;;;;;;16.95;10.30;;;;;;;15.70;100.00;101212.06;5037166;28;20045;-64
2023/09/16 05:03:09;;;;;;;12.90;8.27;;;;;;;15.71;100.00;101213.72;5051194;28;20040;-64
2023/09/16 05:05:58;;;;;;;18.15;9.20;;;;;;;15.73;100.00;101220.56;5040563;28;20084;-64
2023/09/16 05:08:50;;;;;;;16.70;9.25;;;;;;;15.70;100.00;101218.38;5027836;28;20056;-63
2023/09/16 05:11:38;;;;;;;13.63;8.88;;;;;;;15.71;100.00;101220.03;5023763;28;20524;-64
2023/09/16 05:14:27;;;;;;;15.10;8.98;;;;;;;15.70;100.00;101220.31;5052197;28;20056;-65
2023/09/16 05:17:15;;;;;;;14.20;8.90;;;;;;;15.69;100.00;101224.16;5033182;28;20134;-65
2023/09/16 05:20:04;;;;;;;12.93;8.80;;;;;;;15.68;100.00;101217.00;5031383;28;20045;-64
2023/09/16 05:22:53;;;;;;;18.42;8.70;;;;;;;15.67;100.00;101224.44;5023048;28;20045;-65
2023/09/16 05:25:48;;;;;;;15.77;9.25;;;;;;;15.65;100.00;101220.34;5038278;28;20540;-64
2023/09/16 05:28:50;;;;;;;13.43;7.95;;;;;;;15.64;100.00;101219.53;5014403;28;20045;-65
2023/09/16 05:31:38;;;;;;;17.35;9.15;;;;;;;15.65;100.00;101221.16;5033669;28;20514;-66
2023/09/16 05:34:27;;;;;;;16.05;9.98;;;;;;;15.64;100.00;101214.03;5018297;28;20049;-65
2023/09/16 05:37:15;;;;;;;12.05;8.27;;;;;;;15.66;100.00;101220.06;5022611;28;20127;-66
2023/09/16 05:40:03;;;;;;;17.67;9.10;;;;;;;15.65;100.00;101214.84;5024541;28;20041;-65
2023/09/16 05:42:51;;;;;;;14.50;9.02;;;;;;;15.64;100.00;101219.53;5039486;28;20127;-65
2023/09/16 05:45:39;;;;;;;19.00;9.88;;;;;;;15.64;100.00;101214.03;5055653;28;20045;-64
2023/09/16 05:48:28;;;;;;;12.30;8.38;;;;;;;15.64;100.00;101222.28;5047522;28;20041;-65
2023/09/16 05:51:16;;;;;;;12.98;8.80;;;;;;;15.64;100.00;101219.53;5029336;28;20045;-64
2023/09/16 05:54:05;;;;;;;11.45;8.32;;;;;;;15.68;100.00;101220.59;5061196;28;20425;-65
2023/09/16 05:56:54;;;;;;;13.18;9.35;;;;;;;15.72;100.00;101221.66;5033841;28;20042;-64
2023/09/16 05:59:42;;;;;;;13.48;7.82;;;;;;;15.73;100.00;101217.81;5048801;28;20041;-65
2023/09/16 06:02:31;;;;;;;16.17;9.57;;;;;;;15.74;100.00;101224.94;5052764;28;20051;-64
2023/09/16 06:05:19;;;;;;;14.65;8.90;;;;;;;15.73;100.00;101223.31;5037180;28;20049;-65
2023/09/16 06:08:09;;;;;;;14.85;9.68;;;;;;;15.76;100.00;101222.72;5007661;28;20210;-65
2023/09/16 06:10:57;;;;;;;17.00;10.45;;;;;;;15.76;100.00;101217.22;5038213;28;20056;-64
2023/09/16 06:13:46;;;;;;;15.65;10.25;;;;;;;15.79;100.00;101223.22;5037659;28;20128;-65
2023/09/16 06:16:36;;;;;;;16.60;8.82;;;;;;;15.80;100.00;101227.59;5041571;28;20093;-64
2023/09/16 06:19:27;;;;;;;16.00;9.75;;;;;;;15.85;100.00;101227.53;5022276;28;20051;-63
2023/09/16 06:22:15;;;;;;;17.85;9.32;;;;;;;15.86;100.00;101232.75;5023020;28;20052;-62
2023/09/16 06:25:04;;;;;;;16.38;8.68;;;;;;;15.88;100.00;101233.28;5037152;28;20088;-62
2023/09/16 06:27:52;;;;;;;14.48;8.90;;;;;;;15.94;100.00;101237.59;5022635;28;20052;-62
2023/09/16 06:30:40;;;;;;;13.00;7.97;;;;;;;16.00;100.00;101235.63;5039378;28;20047;-63
2023/09/16 06:33:28;;;;;;;14.63;8.68;;;;;;;16.04;100.00;101233.09;5027146;28;20084;-63
2023/09/16 06:36:18;;;;;;;16.45;8.55;;;;;;;16.08;100.00;101234.94;5049417;28;20370;-65
2023/09/16 06:39:07;;;;;;;15.73;9.60;;;;;;;16.11;100.00;101244.53;5054799;28;20490;-63
2023/09/16 06:41:55;;;;;;;14.73;8.02;;;;;;;16.14;100.00;101239.28;5040291;28;20075;-63
2023/09/16 06:44:54;;;;;;;14.82;8.10;;;;;;;16.19;100.00;101243.91;5056302;28;20128;-63
2023/09/16 06:47:42;;;;;;;15.43;9.13;;;;;;;16.22;100.00;101239.72;5053826;28;20080;-63
2023/09/16 06:50:30;;;;;;;13.18;8.65;;;;;;;16.25;100.00;101245.44;5054710;28;20068;-63
2023/09/16 06:53:21;;;;;;;14.90;8.68;;;;;;;16.28;100.00;101249.53;5053897;28;20493;-63
2023/09/16 06:56:09;;;;;;;11.98;8.25;;;;;;;16.35;100.00;101249.97;5020807;28;20124;-62
2023/09/16 06:58:59;;;;;;;14.52;7.90;;;;;;;16.40;100.00;101252.66;5021037;28;20042;-63
2023/09/16 07:02:04;;;;;;;19.08;9.82;;;;;;;16.47;100.00;101247.59;5035018;28;20045;-64
2023/09/16 07:04:55;;;;;;;16.25;8.38;;;;;;;16.51;100.00;101248.66;5034033;28;20054;-63
2023/09/16 07:07:43;;;;;;;12.35;7.40;;;;;;;16.60;100.00;101246.88;5019782;28;20126;-63
2023/09/16 07:10:31;;;;;;;14.18;8.40;;;;;;;16.61;100.00;101254.00;5019989;28;20066;-63
2023/09/16 07:13:19;;;;;;;14.77;8.93;;;;;;;16.68;100.00;101252.81;5033803;28;20045;-64
2023/09/16 07:16:10;;;;;;;16.33;8.35;;;;;;;16.74;100.00;101246.94;5035803;28;20048;-62
2023/09/16 07:18:58;;;;;;;13.73;7.70;;;;;;;16.77;100.00;101240.03;5019510;28;20042;-62
2023/09/16 07:21:46;;;;;;;13.60;8.32;;;;;;;16.80;100.00;101239.44;5033755;28;20045;-64
2023/09/16 07:24:35;;;;;;;13.02;8.45;;;;;;;16.82;100.00;101237.22;5033419;28;20556;-62
2023/09/16 07:27:23;;;;;;;18.27;9.10;;;;;;;16.86;100.00;101237.41;5040949;28;20084;-62
2023/09/16 07:30:12;;;;;;;12.13;7.22;;;;;;;16.90;100.00;101233.75;5040006;28;20049;-62
2023/09/16 07:33:00;;;;;;;16.73;8.23;;;;;;;16.95;100.00;101243.88;5053516;28;20059;-62
2023/09/16 07:35:51;;;;;;;15.63;7.85;;;;;;;16.99;100.00;101242.97;5033811;28;20049;-64
2023/09/16 07:38:39;;;;;;;11.32;7.20;;;;;;;17.03;100.00;101241.28;5053841;28;20179;-62
2023/09/16 07:41:27;;;;;;;13.20;8.43;;;;;;;17.06;100.00;101248.09;5040645;28;20041;-63
2023/09/16 07:44:15;;;;;;;13.65;7.63;;;;;;;17.12;100.00;101246.88;5040652;28;20048;-63
2023/09/16 07:47:03;;;;;;;30.30;10.75;;;;;;;17.16;100.00;101242.41;5041867;28;20152;-64
2023/09/16 07:49:51;;;;;;;44.78;14.35;;;;;;;17.23;100.00;101256.59;5033364;28;20049;-62
2023/09/16 07:52:39;;;;;;;41.53;13.07;;;;;;;17.24;100.00;101257.41;5034412;28;20045;-62
2023/09/16 07:55:27;;;;;;;19.17;9.82;;;;;;;17.24;100.00;101254.66;5046658;28;20194;-64
2023/09/16 07:58:15;;;;;;;20.70;8.70;;;;;;;17.27;100.00;101259.59;5025818;28;20528;-64
2023/09/16 08:01:03;;;;;;;21.60;9.63;;;;;;;17.33;100.00;101257.56;5052664;28;20133;-63
2023/09/16 08:03:57;;;;;;;16.14;8.08;;;;;;;17.32;100.00;101256.75;4900183;28;10000593;-63
2023/09/16 08:06:49;;;;;;;21.25;8.50;;;;;;;17.34;100.00;101260.00;4673741;28;10001005;-63
2023/09/16 08:09:38;;;;;;;16.02;9.02;;;;;;;17.35;100.00;101261.63;5042560;28;20048;-64
2023/09/16 08:12:26;;;;;;;13.50;8.00;;;;;;;17.37;100.00;101259.41;5049339;28;20210;-64
2023/09/16 08:15:14;;;;;;;13.90;7.93;;;;;;;17.41;100.00;101265.09;5049789;28;20053;-64
2023/09/16 08:18:02;;;;;;;12.63;8.38;;;;;;;17.46;100.00;101265.84;5048981;28;20088;-63
2023/09/16 08:20:50;;;;;;;14.35;7.80;;;;;;;17.53;100.00;101267.38;5034445;28;20420;-63
2023/09/16 08:23:38;;;;;;;15.88;9.75;;;;;;;17.56;100.00;101266.78;5048845;28;20052;-64
2023/09/16 08:26:26;;;;;;;14.48;9.75;;;;;;;17.60;100.00;101256.78;5030213;28;20574;-65
2023/09/16 08:29:14;;;;;;;15.77;8.90;;;;;;;17.67;100.00;101266.25;5041583;28;20052;-64
2023/09/16 08:32:02;;;;;;;14.02;9.30;;;;;;;17.68;100.00;101267.09;5019760;28;20048;-65
2023/09/16 08:34:50;;;;;;;16.73;9.73;;;;;;;17.70;100.00;101266.78;5037863;28;20045;-64
2023/09/16 08:37:38;;;;;;;16.92;9.98;;;;;;;17.79;100.00;101271.28;5039316;28;20085;-65
2023/09/16 08:40:29;;;;;;;15.07;9.98;;;;;;;17.86;100.00;101273.66;5033413;28;20056;-64
2023/09/16 08:43:32;;;;;;;13.80;9.20;;;;;;;17.93;100.00;101267.75;5049070;28;20048;-66
2023/09/16 08:46:22;;;;;;;14.80;9.15;;;;;;;17.95;100.00;101274.59;5032933;28;20130;-62
2023/09/16 08:49:13;;;;;;;14.38;8.85;;;;;;;17.97;100.00;101272.34;5032537;28;20509;-64
2023/09/16 08:52:02;;;;;;;16.52;8.50;;;;;;;18.01;100.00;101280.81;5013223;28;20049;-64
2023/09/16 08:54:51;;;;;;;18.77;8.98;;;;;;;18.03;100.00;101278.56;5028844;28;20136;-64
2023/09/16 08:58:09;;;;;;;14.50;9.43;;;;;;;18.06;100.00;101277.94;5021862;28;20044;-64
2023/09/16 09:00:58;;;;;;;15.35;10.23;;;;;;;18.11;100.00;101275.06;5034198;28;20057;-64
2023/09/16 09:03:47;;;;;;;17.20;10.85;;;;;;;18.18;100.00;101282.94;5047283;28;20072;-65
2023/09/16 09:06:36;;;;;;;17.23;11.35;;;;;;;18.27;100.00;101275.56;4999856;28;20048;-65
2023/09/16 09:09:28;;;;;;;11.63;8.07;;;;;;;18.32;100.00;101283.72;5031914;28;20118;-63
2023/09/16 09:12:17;;;;;;;13.27;9.07;;;;;;;18.34;100.00;101281.50;5048171;28;20124;-64
2023/09/16 09:15:08;;;;;;;14.43;10.73;;;;;;;18.35;100.00;101276.78;5030687;28;20513;-64
2023/09/16 09:17:58;;;;;;;15.43;11.13;;;;;;;18.42;100.00;101277.97;5029852;28;20709;-63
2023/09/16 09:20:47;;;;;;;16.75;10.88;;;;;;;18.58;100.00;101274.91;5032857;28;20115;-64
2023/09/16 09:23:35;;;;;;;15.65;9.90;;;;;;;18.67;100.00;101287.66;5032512;28;20056;-62
2023/09/16 09:26:23;;;;;;;10.30;6.95;;;;;;;18.72;100.00;101286.72;5028030;28;20663;-63
2023/09/16 09:29:13;;;;;;;15.50;8.43;;;;;;;18.73;100.00;101289.13;5015162;28;20060;-63
2023/09/16 09:32:02;;;;;;;14.50;8.10;;;;;;;18.78;100.00;101290.19;5035316;28;20060;-64
2023/09/16 09:34:50;;;;;;;13.95;8.15;;;;;;;18.78;100.00;101284.66;5049353;28;20512;-64
2023/09/16 09:37:39;;;;;;;14.63;8.80;;;;;;;18.74;100.00;101278.94;5049885;28;20064;-63
2023/09/16 09:40:28;;;;;;;13.02;8.98;;;;;;;18.75;100.00;101286.09;5033671;28;20041;-63
2023/09/16 09:43:19;;;;;;;12.30;8.60;;;;;;;18.84;100.00;101291.72;5048310;28;20044;-63
2023/09/16 09:46:08;;;;;;;14.65;9.07;;;;;;;18.89;100.00;101291.59;5034188;28;20053;-63
2023/09/16 09:48:56;;;;;;;15.98;8.90;;;;;;;18.96;100.00;101291.97;5037439;28;20048;-63
2023/09/16 09:51:47;;;;;;;13.05;8.82;;;;;;;18.99;100.00;101296.88;5039857;28;20146;-64
2023/09/16 09:54:35;;;;;;;14.43;8.27;;;;;;;19.02;100.00;101300.94;5045966;28;20048;-63
2023/09/16 09:57:24;;;;;;;11.75;8.63;;;;;;;19.01;100.00;101297.38;5046208;28;20044;-63
2023/09/16 10:00:17;;;;;;;14.25;10.25;;;;;;;19.05;100.00;101306.66;5046572;28;20396;-63
2023/09/16 10:03:05;;;;;;;13.43;9.23;;;;;;;19.11;100.00;101293.53;5034982;28;20067;-63
2023/09/16 10:05:54;;;;;;;17.23;10.82;;;;;;;19.16;100.00;101301.69;5027960;28;20045;-64
2023/09/16 10:08:43;;;;;;;11.80;8.65;;;;;;;19.24;100.00;101302.88;5052740;28;20374;-63
2023/09/16 10:11:36;;;;;;;14.27;9.07;;;;;;;19.29;100.00;101300.81;5050999;28;20053;-63
2023/09/16 10:14:24;;;;;;;15.30;9.50;;;;;;;19.31;100.00;101283.91;5050128;28;20048;-63
2023/09/16 10:17:13;;;;;;;18.58;10.15;;;;;;;19.30;100.00;101282.28;5051644;28;20521;-64
2023/09/16 10:20:02;;;;;;;19.17;10.38;;;;;;;19.30;100.00;101285.06;5036666;28;20045;-63
2023/09/16 10:22:51;;;;;;;11.95;8.02;;;;;;;19.31;100.00;101281.16;5020991;28;20044;-64
2023/09/16 10:25:40;;;;;;;13.90;9.55;;;;;;;19.39;100.00;101287.88;5028902;28;20056;-65
2023/09/16 10:28:29;;;;;;;14.05;10.05;;;;;;;19.47;100.00;101290.69;5050123;28;20151;-65
2023/09/16 10:31:17;;;;;;;16.23;9.40;;;;;;;19.53;100.00;101296.88;5051825;28;20412;-63
2023/09/16 10:34:05;;;;;;;12.88;9.40;;;;;;;19.56;100.00;101294.31;5021919;28;20061;-65
2023/09/16 10:36:53;;;;;;;15.43;9.73;;;;;;;19.63;100.00;101293.06;5035138;28;20475;-65
2023/09/16 10:39:43;;;;;;;11.98;8.60;;;;;;;19.68;100.00;101284.66;5037201;28;20053;-63
2023/09/16 10:42:34;;;;;;;13.35;7.32;;;;;;;19.70;100.00;101283.19;5036599;28;20493;-63
2023/09/16 10:45:22;;;;;;;15.77;9.38;;;;;;;19.74;100.00;101284.16;5029147;28;20064;-64
2023/09/16 10:48:10;;;;;;;12.52;7.85;;;;;;;19.84;100.00;101280.28;5003782;28;20057;-65
2023/09/16 10:51:02;;;;;;;12.07;7.95;;;;;;;19.90;100.00;101276.25;5032744;28;20103;-63
2023/09/16 10:53:55;;;;;;;10.00;6.75;;;;;;;19.95;100.00;101273.34;5032106;28;20092;-63
2023/09/16 10:56:44;;;;;;;15.75;9.10;;;;;;;20.06;100.00;101278.56;5030805;28;20148;-64
2023/09/16 10:59:34;;;;;;;13.93;8.93;;;;;;;20.19;100.00;101261.84;5048779;28;20049;-63
2023/09/16 11:02:29;;;;;;;12.45;8.77;;;;;;;20.14;100.00;101269.50;5025621;28;20183;-64
2023/09/16 11:05:17;;;;;;;13.55;9.48;;;;;;;20.19;100.00;101267.38;5036780;28;20480;-64
2023/09/16 11:08:07;;;;;;;12.32;9.38;;;;;;;20.21;100.00;101269.84;5050642;28;20045;-62
2023/09/16 11:10:58;;;;;;;14.32;9.40;;;;;;;20.29;100.00;101257.97;5051252;28;20108;-64
2023/09/16 11:13:46;;;;;;;13.43;9.15;;;;;;;20.38;100.00;101258.78;5048942;28;20052;-63
2023/09/16 11:16:45;;;;;;;17.48;9.85;;;;;;;20.46;99.61;101259.13;5041601;28;20447;-64
2023/09/16 11:19:33;;;;;;;14.13;9.75;;;;;;;20.46;99.95;101259.13;5035169;28;20048;-63
2023/09/16 11:22:21;;;;;;;11.55;8.27;;;;;;;20.48;99.71;101254.09;5020559;28;20045;-64
2023/09/16 11:25:11;;;;;;;14.82;9.27;;;;;;;20.63;99.43;101254.44;5031077;28;20107;-64
2023/09/16 11:28:03;;;;;;;16.52;9.52;;;;;;;20.67;100.00;101260.16;5036601;28;20112;-65
2023/09/16 11:30:56;;;;;;;12.60;8.35;;;;;;;20.76;99.79;101257.38;5030990;28;20045;-62
2023/09/16 11:33:44;;;;;;;13.55;9.48;;;;;;;20.76;97.69;101255.44;5016277;28;20302;-62
2023/09/16 11:36:36;;;;;;;11.40;8.35;;;;;;;20.77;98.08;101248.75;5022556;28;20069;-64
2023/09/16 11:39:34;;;;;;;14.10;8.77;;;;;;;20.83;98.33;101241.09;5039037;28;20050;-64
2023/09/16 11:42:22;;;;;;;14.90;9.45;;;;;;;20.84;99.09;101235.22;5030694;28;20060;-64
2023/09/16 11:45:11;;;;;;;11.90;8.00;;;;;;;20.94;98.63;101238.78;5014310;28;20406;-65
2023/09/16 11:48:02;;;;;;;17.75;8.93;;;;;;;20.99;97.44;101236.66;5024068;28;20056;-64
2023/09/16 11:50:50;;;;;;;13.65;8.10;;;;;;;20.98;98.14;101243.34;5031403;28;20049;-64
2023/09/16 11:53:38;;;;;;;16.42;9.52;;;;;;;20.95;97.27;101237.63;5024695;28;20402;-63
2023/09/16 11:56:28;;;;;;;12.88;8.68;;;;;;;20.92;97.48;101238.28;5037911;28;20045;-64
2023/09/16 11:59:16;;;;;;;11.18;6.78;;;;;;;20.87;97.94;101241.25;5030684;28;20393;-64
2023/09/16 12:02:05;;;;;;;17.65;8.52;;;;;;;20.93;98.32;101239.94;5035482;28;20052;-64
2023/09/16 12:04:53;;;;;;;10.75;6.00;;;;;;;20.97;97.11;101235.34;5042075;28;20045;-64
2023/09/16 12:07:42;;;;;;;13.40;8.82;;;;;;;20.95;97.42;101238.47;5030491;28;20050;-65
2023/09/16 12:10:30;;;;;;;11.85;7.97;;;;;;;20.95;97.94;101232.94;5007218;28;20045;-64
2023/09/16 12:13:32;;;;;;;12.90;8.18;;;;;;;21.09;97.17;101231.91;5047902;28;20051;-63
2023/09/16 12:16:20;;;;;;;14.07;9.40;;;;;;;21.15;97.28;101231.41;5047926;28;20448;-65
2023/09/16 12:19:08;;;;;;;12.98;9.27;;;;;;;21.15;96.88;101231.41;5037164;28;20048;-64
2023/09/16 12:21:57;;;;;;;14.50;8.63;;;;;;;21.25;97.64;101233.81;5015584;28;20056;-64
2023/09/16 12:24:46;;;;;;;16.20;8.30;;;;;;;21.29;96.54;101228.44;5024703;28;20057;-65
2023/09/16 12:27:34;;;;;;;17.05;7.90;;;;;;;21.26;96.31;101232.69;5035115;28;20049;-64
2023/09/16 12:30:22;;;;;;;20.35;8.77;;;;;;;21.23;97.25;101229.75;5045906;28;20067;-64
2023/09/16 12:33:10;;;;;;;14.98;8.07;;;;;;;21.27;97.08;101239.84;5019864;28;20517;-63
2023/09/16 12:35:58;;;;;;;13.75;8.88;;;;;;;21.31;96.10;101228.94;5030183;28;20053;-65
2023/09/16 12:38:47;;;;;;;15.40;9.57;;;;;;;21.35;96.94;101235.41;5034022;28;20381;-64
2023/09/16 12:41:36;;;;;;;17.15;9.32;;;;;;;21.47;96.28;101229.22;5016259;28;20049;-65
2023/09/16 12:44:24;;;;;;;12.88;8.95;;;;;;;21.47;96.02;101223.69;5014616;28;20061;-63
2023/09/16 12:47:13;;;;;;;17.15;8.77;;;;;;;21.42;97.42;101224.66;5015168;28;20061;-64
2023/09/16 12:50:02;;;;;;;13.98;9.52;;;;;;;21.65;94.62;101228.00;5031492;28;20520;-64